sensor_id;sensor_type;location;lat;lon;timestamp;P1;durP1;ratioP1;P2;durP2;ratioP2
57231;SDS011;43488;46.934;8.276;2022-11-20T00:01:32;462.83;;;208.02;;
57231;SDS011;43488;46.934;8.276;2022-11-20T00:03:59;437.55;;;288.55;;
57231;SDS011;43488;46.934;8.276;2022-11-20T00:06:27;447.05;;;296.25;;
57231;SDS011;43488;46.934;8.276;2022-11-20T00:08:56;477.92;;;222.90;;
57231;SDS011;43488;46.934;8.276;2022-11-20T00:11:27;467.10;;;201.97;;
57231;SDS011;43488;46.934;8.276;2022-11-20T00:13:59;450.45;;;297.63;;
57231;SDS011;43488;46.934;8.276;2022-11-20T00:16:29;475.27;;;221.30;;
57231;SDS011;43488;46.934;8.276;2022-11-20T00:18:59;443.73;;;292.38;;
57231;SDS011;43488;46.934;8.276;2022-11-20T00:21:27;475.70;;;222.95;;
57231;SDS011;43488;46.934;8.276;2022-11-20T00:23:56;479.23;;;222.02;;
57231;SDS011;43488;46.934;8.276;2022-11-20T00:26:25;477.15;;;223.30;;
57231;SDS011;43488;46.934;8.276;2022-11-20T00:28:54;452.17;;;298.27;;
57231;SDS011;43488;46.934;8.276;2022-11-20T00:31:27;426.73;;;279.02;;
57231;SDS011;43488;46.934;8.276;2022-11-20T00:33:56;484.48;;;220.95;;
57231;SDS011;43488;46.934;8.276;2022-11-20T00:36:24;432.52;;;286.60;;
57231;SDS011;43488;46.934;8.276;2022-11-20T00:38:54;478.05;;;217.45;;
57231;SDS011;43488;46.934;8.276;2022-11-20T00:41:24;479.42;;;220.15;;
57231;SDS011;43488;46.934;8.276;2022-11-20T00:43:55;440.03;;;290.03;;
57231;SDS011;43488;46.934;8.276;2022-11-20T00:46:24;451.65;;;298.70;;
57231;SDS011;43488;46.934;8.276;2022-11-20T00:48:53;446.35;;;294.80;;
57231;SDS011;43488;46.934;8.276;2022-11-20T00:51:22;482.10;;;224.00;;
57231;SDS011;43488;46.934;8.276;2022-11-20T00:53:54;434.10;;;280.88;;
57231;SDS011;43488;46.934;8.276;2022-11-20T00:56:24;452.20;;;301.20;;
57231;SDS011;43488;46.934;8.276;2022-11-20T00:58:54;434.20;;;288.40;;
57231;SDS011;43488;46.934;8.276;2022-11-20T01:01:23;483.63;;;225.27;;
57231;SDS011;43488;46.934;8.276;2022-11-20T01:03:53;455.88;;;305.05;;
57231;SDS011;43488;46.934;8.276;2022-11-20T01:09:06;458.48;;;201.43;;
57231;SDS011;43488;46.934;8.276;2022-11-20T01:11:40;479.33;;;219.63;;
57231;SDS011;43488;46.934;8.276;2022-11-20T01:14:14;444.30;;;296.50;;
57231;SDS011;43488;46.934;8.276;2022-11-20T01:16:48;442.73;;;298.85;;
57231;SDS011;43488;46.934;8.276;2022-11-20T01:19:19;489.77;;;231.57;;
57231;SDS011;43488;46.934;8.276;2022-11-20T01:21:50;442.42;;;291.80;;
57231;SDS011;43488;46.934;8.276;2022-11-20T01:24:21;451.45;;;297.20;;
57231;SDS011;43488;46.934;8.276;2022-11-20T01:26:49;463.02;;;312.23;;
57231;SDS011;43488;46.934;8.276;2022-11-20T01:29:20;448.20;;;306.23;;
57231;SDS011;43488;46.934;8.276;2022-11-20T01:31:49;464.30;;;303.90;;
57231;SDS011;43488;46.934;8.276;2022-11-20T01:34:18;466.67;;;209.05;;
57231;SDS011;43488;46.934;8.276;2022-11-20T01:36:49;484.83;;;228.73;;
57231;SDS011;43488;46.934;8.276;2022-11-20T01:39:19;444.95;;;292.15;;
57231;SDS011;43488;46.934;8.276;2022-11-20T01:41:50;483.33;;;233.80;;
57231;SDS011;43488;46.934;8.276;2022-11-20T01:47:27;463.48;;;206.85;;
57231;SDS011;43488;46.934;8.276;2022-11-20T01:52:54;466.98;;;210.65;;
57231;SDS011;43488;46.934;8.276;2022-11-20T01:55:36;431.80;;;286.20;;
57231;SDS011;43488;46.934;8.276;2022-11-20T01:58:09;466.73;;;320.60;;
57231;SDS011;43488;46.934;8.276;2022-11-20T02:00:38;467.95;;;220.38;;
57231;SDS011;43488;46.934;8.276;2022-11-20T02:03:07;435.05;;;291.35;;
57231;SDS011;43488;46.934;8.276;2022-11-20T02:05:41;424.55;;;281.00;;
57231;SDS011;43488;46.934;8.276;2022-11-20T02:08:18;440.48;;;296.85;;
57231;SDS011;43488;46.934;8.276;2022-11-20T02:10:47;469.70;;;211.65;;
57231;SDS011;43488;46.934;8.276;2022-11-20T02:13:15;472.38;;;223.27;;
57231;SDS011;43488;46.934;8.276;2022-11-20T02:16:02;451.60;;;300.30;;
57231;SDS011;43488;46.934;8.276;2022-11-20T02:18:30;441.10;;;301.27;;
57231;SDS011;43488;46.934;8.276;2022-11-20T02:20:59;473.52;;;222.18;;
57231;SDS011;43488;46.934;8.276;2022-11-20T02:27:21;491.75;;;239.10;;
57231;SDS011;43488;46.934;8.276;2022-11-20T02:29:56;436.02;;;296.77;;
57231;SDS011;43488;46.934;8.276;2022-11-20T02:32:28;469.67;;;217.75;;
57231;SDS011;43488;46.934;8.276;2022-11-20T02:35:05;479.77;;;228.85;;
57231;SDS011;43488;46.934;8.276;2022-11-20T02:37:53;467.88;;;220.60;;
57231;SDS011;43488;46.934;8.276;2022-11-20T02:40:27;436.10;;;297.70;;
57231;SDS011;43488;46.934;8.276;2022-11-20T02:42:56;440.50;;;297.20;;
57231;SDS011;43488;46.934;8.276;2022-11-20T02:45:25;451.60;;;300.20;;
57231;SDS011;43488;46.934;8.276;2022-11-20T02:47:52;483.08;;;223.63;;
57231;SDS011;43488;46.934;8.276;2022-11-20T02:50:20;480.17;;;224.50;;
57231;SDS011;43488;46.934;8.276;2022-11-20T02:52:48;490.80;;;233.52;;
57231;SDS011;43488;46.934;8.276;2022-11-20T02:55:16;478.88;;;224.75;;
57231;SDS011;43488;46.934;8.276;2022-11-20T02:57:43;471.33;;;226.77;;
57231;SDS011;43488;46.934;8.276;2022-11-20T03:00:12;458.85;;;207.70;;
57231;SDS011;43488;46.934;8.276;2022-11-20T03:02:40;474.92;;;223.75;;
57231;SDS011;43488;46.934;8.276;2022-11-20T03:05:08;416.33;;;274.25;;
57231;SDS011;43488;46.934;8.276;2022-11-20T03:07:36;438.08;;;291.60;;
57231;SDS011;43488;46.934;8.276;2022-11-20T03:10:04;436.25;;;287.10;;
57231;SDS011;43488;46.934;8.276;2022-11-20T03:12:32;428.25;;;289.15;;
57231;SDS011;43488;46.934;8.276;2022-11-20T03:15:00;433.63;;;288.70;;
57231;SDS011;43488;46.934;8.276;2022-11-20T03:17:27;466.17;;;220.98;;
57231;SDS011;43488;46.934;8.276;2022-11-20T03:19:57;444.77;;;297.70;;
57231;SDS011;43488;46.934;8.276;2022-11-20T03:22:24;428.83;;;286.90;;
57231;SDS011;43488;46.934;8.276;2022-11-20T03:24:51;474.67;;;227.02;;
57231;SDS011;43488;46.934;8.276;2022-11-20T03:27:18;470.92;;;219.10;;
57231;SDS011;43488;46.934;8.276;2022-11-20T03:29:46;479.00;;;225.93;;
57231;SDS011;43488;46.934;8.276;2022-11-20T03:32:13;449.75;;;293.67;;
57231;SDS011;43488;46.934;8.276;2022-11-20T03:34:41;490.05;;;234.95;;
57231;SDS011;43488;46.934;8.276;2022-11-20T03:37:08;476.63;;;331.90;;
57231;SDS011;43488;46.934;8.276;2022-11-20T03:39:37;463.70;;;210.40;;
57231;SDS011;43488;46.934;8.276;2022-11-20T03:42:11;444.15;;;299.98;;
57231;SDS011;43488;46.934;8.276;2022-11-20T03:44:57;443.50;;;303.83;;
57231;SDS011;43488;46.934;8.276;2022-11-20T03:47:24;477.00;;;222.38;;
57231;SDS011;43488;46.934;8.276;2022-11-20T03:49:53;448.83;;;313.20;;
57231;SDS011;43488;46.934;8.276;2022-11-20T03:52:20;465.20;;;211.07;;
57231;SDS011;43488;46.934;8.276;2022-11-20T03:54:47;449.35;;;301.25;;
57231;SDS011;43488;46.934;8.276;2022-11-20T03:57:15;437.40;;;298.00;;
57231;SDS011;43488;46.934;8.276;2022-11-20T03:59:42;415.83;;;276.88;;
57231;SDS011;43488;46.934;8.276;2022-11-20T04:02:10;431.20;;;286.55;;
57231;SDS011;43488;46.934;8.276;2022-11-20T04:04:37;492.40;;;242.60;;
57231;SDS011;43488;46.934;8.276;2022-11-20T04:07:04;458.90;;;203.23;;
57231;SDS011;43488;46.934;8.276;2022-11-20T04:09:31;470.38;;;224.50;;
57231;SDS011;43488;46.934;8.276;2022-11-20T04:11:59;469.83;;;220.35;;
57231;SDS011;43488;46.934;8.276;2022-11-20T04:14:26;416.40;;;276.52;;
57231;SDS011;43488;46.934;8.276;2022-11-20T04:16:54;485.60;;;228.43;;
57231;SDS011;43488;46.934;8.276;2022-11-20T04:19:21;445.02;;;299.80;;
57231;SDS011;43488;46.934;8.276;2022-11-20T04:21:48;450.30;;;300.38;;
57231;SDS011;43488;46.934;8.276;2022-11-20T04:24:16;478.42;;;222.50;;
57231;SDS011;43488;46.934;8.276;2022-11-20T04:26:43;428.70;;;287.63;;
57231;SDS011;43488;46.934;8.276;2022-11-20T04:29:11;425.92;;;285.50;;
57231;SDS011;43488;46.934;8.276;2022-11-20T04:31:38;480.98;;;226.88;;
57231;SDS011;43488;46.934;8.276;2022-11-20T04:34:06;456.15;;;309.27;;
57231;SDS011;43488;46.934;8.276;2022-11-20T04:36:34;435.33;;;289.65;;
57231;SDS011;43488;46.934;8.276;2022-11-20T04:39:02;422.48;;;279.85;;
57231;SDS011;43488;46.934;8.276;2022-11-20T04:41:33;476.98;;;221.68;;
57231;SDS011;43488;46.934;8.276;2022-11-20T04:44:05;436.30;;;290.85;;
57231;SDS011;43488;46.934;8.276;2022-11-20T04:46:36;464.75;;;209.57;;
57231;SDS011;43488;46.934;8.276;2022-11-20T04:49:08;428.52;;;288.02;;
57231;SDS011;43488;46.934;8.276;2022-11-20T04:51:38;479.88;;;224.98;;
57231;SDS011;43488;46.934;8.276;2022-11-20T04:54:06;463.10;;;212.27;;
57231;SDS011;43488;46.934;8.276;2022-11-20T04:56:34;484.48;;;224.82;;
57231;SDS011;43488;46.934;8.276;2022-11-20T04:59:02;441.95;;;297.58;;
57231;SDS011;43488;46.934;8.276;2022-11-20T05:01:31;475.85;;;220.50;;
57231;SDS011;43488;46.934;8.276;2022-11-20T05:04:00;472.33;;;224.45;;
57231;SDS011;43488;46.934;8.276;2022-11-20T05:06:28;464.10;;;209.32;;
57231;SDS011;43488;46.934;8.276;2022-11-20T05:08:55;440.38;;;295.30;;
57231;SDS011;43488;46.934;8.276;2022-11-20T05:11:23;442.38;;;298.27;;
57231;SDS011;43488;46.934;8.276;2022-11-20T05:13:58;473.13;;;221.70;;
57231;SDS011;43488;46.934;8.276;2022-11-20T05:16:26;444.15;;;300.55;;
57231;SDS011;43488;46.934;8.276;2022-11-20T05:18:54;445.45;;;302.00;;
57231;SDS011;43488;46.934;8.276;2022-11-20T05:21:22;431.05;;;291.00;;
57231;SDS011;43488;46.934;8.276;2022-11-20T05:23:51;436.52;;;291.73;;
57231;SDS011;43488;46.934;8.276;2022-11-20T05:26:20;472.90;;;228.50;;
57231;SDS011;43488;46.934;8.276;2022-11-20T05:28:48;437.73;;;292.35;;
57231;SDS011;43488;46.934;8.276;2022-11-20T05:31:18;418.48;;;276.20;;
57231;SDS011;43488;46.934;8.276;2022-11-20T05:33:48;418.80;;;279.67;;
57231;SDS011;43488;46.934;8.276;2022-11-20T05:36:16;466.10;;;212.43;;
57231;SDS011;43488;46.934;8.276;2022-11-20T05:38:44;422.75;;;285.88;;
57231;SDS011;43488;46.934;8.276;2022-11-20T05:41:12;427.10;;;282.27;;
57231;SDS011;43488;46.934;8.276;2022-11-20T05:43:45;431.70;;;289.52;;
57231;SDS011;43488;46.934;8.276;2022-11-20T05:46:15;470.67;;;220.75;;
57231;SDS011;43488;46.934;8.276;2022-11-20T05:48:45;462.95;;;213.20;;
57231;SDS011;43488;46.934;8.276;2022-11-20T05:51:14;423.35;;;280.70;;
57231;SDS011;43488;46.934;8.276;2022-11-20T05:53:44;472.07;;;212.23;;
57231;SDS011;43488;46.934;8.276;2022-11-20T05:56:13;422.67;;;285.98;;
57231;SDS011;43488;46.934;8.276;2022-11-20T05:58:44;468.20;;;215.00;;
57231;SDS011;43488;46.934;8.276;2022-11-20T06:01:20;462.52;;;220.38;;
57231;SDS011;43488;46.934;8.276;2022-11-20T06:03:50;423.20;;;279.77;;
57231;SDS011;43488;46.934;8.276;2022-11-20T06:06:19;471.00;;;218.73;;
57231;SDS011;43488;46.934;8.276;2022-11-20T06:08:47;467.17;;;228.68;;
57231;SDS011;43488;46.934;8.276;2022-11-20T06:11:15;446.08;;;298.55;;
57231;SDS011;43488;46.934;8.276;2022-11-20T06:13:44;471.05;;;224.10;;
57231;SDS011;43488;46.934;8.276;2022-11-20T06:16:12;436.33;;;293.17;;
57231;SDS011;43488;46.934;8.276;2022-11-20T06:18:43;413.23;;;276.77;;
57231;SDS011;43488;46.934;8.276;2022-11-20T06:21:15;444.40;;;290.67;;
57231;SDS011;43488;46.934;8.276;2022-11-20T06:23:45;470.33;;;225.18;;
57231;SDS011;43488;46.934;8.276;2022-11-20T06:26:15;440.48;;;292.92;;
57231;SDS011;43488;46.934;8.276;2022-11-20T06:28:45;429.58;;;291.20;;
57231;SDS011;43488;46.934;8.276;2022-11-20T06:31:13;424.98;;;294.02;;
57231;SDS011;43488;46.934;8.276;2022-11-20T06:33:42;430.38;;;293.55;;
57231;SDS011;43488;46.934;8.276;2022-11-20T06:36:11;470.08;;;223.05;;
57231;SDS011;43488;46.934;8.276;2022-11-20T06:38:41;478.02;;;227.63;;
57231;SDS011;43488;46.934;8.276;2022-11-20T06:41:10;483.65;;;229.93;;
57231;SDS011;43488;46.934;8.276;2022-11-20T06:43:43;452.55;;;306.35;;
57231;SDS011;43488;46.934;8.276;2022-11-20T06:46:13;420.77;;;285.45;;
57231;SDS011;43488;46.934;8.276;2022-11-20T06:48:43;473.40;;;226.05;;
57231;SDS011;43488;46.934;8.276;2022-11-20T06:51:12;427.65;;;286.88;;
57231;SDS011;43488;46.934;8.276;2022-11-20T06:53:39;404.23;;;271.67;;
57231;SDS011;43488;46.934;8.276;2022-11-20T06:56:07;484.30;;;233.32;;
57231;SDS011;43488;46.934;8.276;2022-11-20T06:58:36;469.48;;;223.82;;
57231;SDS011;43488;46.934;8.276;2022-11-20T07:01:05;468.98;;;219.40;;
57231;SDS011;43488;46.934;8.276;2022-11-20T07:03:38;468.70;;;221.70;;
57231;SDS011;43488;46.934;8.276;2022-11-20T07:06:07;445.60;;;203.57;;
57231;SDS011;43488;46.934;8.276;2022-11-20T07:08:37;422.92;;;283.73;;
57231;SDS011;43488;46.934;8.276;2022-11-20T07:11:06;439.55;;;292.23;;
57231;SDS011;43488;46.934;8.276;2022-11-20T07:13:33;469.48;;;215.75;;
57231;SDS011;43488;46.934;8.276;2022-11-20T07:16:02;474.33;;;233.70;;
57231;SDS011;43488;46.934;8.276;2022-11-20T07:18:34;460.02;;;211.13;;
57231;SDS011;43488;46.934;8.276;2022-11-20T07:21:03;457.40;;;212.27;;
57231;SDS011;43488;46.934;8.276;2022-11-20T07:23:34;481.10;;;224.23;;
57231;SDS011;43488;46.934;8.276;2022-11-20T07:26:05;474.58;;;222.38;;
57231;SDS011;43488;46.934;8.276;2022-11-20T07:28:35;478.38;;;226.88;;
57231;SDS011;43488;46.934;8.276;2022-11-20T07:31:03;470.33;;;227.82;;
57231;SDS011;43488;46.934;8.276;2022-11-20T07:33:32;425.98;;;286.65;;
57231;SDS011;43488;46.934;8.276;2022-11-20T07:36:00;443.25;;;295.15;;
57231;SDS011;43488;46.934;8.276;2022-11-20T07:38:27;475.02;;;230.63;;
57231;SDS011;43488;46.934;8.276;2022-11-20T07:40:56;440.45;;;306.05;;
57231;SDS011;43488;46.934;8.276;2022-11-20T07:43:24;435.88;;;287.55;;
57231;SDS011;43488;46.934;8.276;2022-11-20T07:45:51;424.67;;;292.40;;
57231;SDS011;43488;46.934;8.276;2022-11-20T07:48:21;422.58;;;280.75;;
57231;SDS011;43488;46.934;8.276;2022-11-20T07:50:52;476.27;;;223.90;;
57231;SDS011;43488;46.934;8.276;2022-11-20T07:53:21;443.08;;;289.02;;
57231;SDS011;43488;46.934;8.276;2022-11-20T07:55:53;470.77;;;214.32;;
57231;SDS011;43488;46.934;8.276;2022-11-20T07:58:20;451.85;;;308.20;;
57231;SDS011;43488;46.934;8.276;2022-11-20T08:00:48;472.52;;;223.10;;
57231;SDS011;43488;46.934;8.276;2022-11-20T08:03:16;433.77;;;290.63;;
57231;SDS011;43488;46.934;8.276;2022-11-20T08:05:44;479.20;;;223.18;;
57231;SDS011;43488;46.934;8.276;2022-11-20T08:08:11;455.48;;;208.93;;
57231;SDS011;43488;46.934;8.276;2022-11-20T08:10:40;479.80;;;219.48;;
57231;SDS011;43488;46.934;8.276;2022-11-20T08:13:08;466.88;;;221.82;;
57231;SDS011;43488;46.934;8.276;2022-11-20T08:15:54;428.40;;;280.40;;
57231;SDS011;43488;46.934;8.276;2022-11-20T08:18:22;435.45;;;299.92;;
57231;SDS011;43488;46.934;8.276;2022-11-20T08:20:51;458.92;;;311.02;;
57231;SDS011;43488;46.934;8.276;2022-11-20T08:23:18;433.30;;;289.40;;
57231;SDS011;43488;46.934;8.276;2022-11-20T08:25:48;435.95;;;294.70;;
57231;SDS011;43488;46.934;8.276;2022-11-20T08:28:17;471.00;;;311.73;;
57231;SDS011;43488;46.934;8.276;2022-11-20T08:30:44;501.52;;;237.32;;
57231;SDS011;43488;46.934;8.276;2022-11-20T08:33:12;424.17;;;284.55;;
57231;SDS011;43488;46.934;8.276;2022-11-20T08:35:40;442.77;;;296.25;;
57231;SDS011;43488;46.934;8.276;2022-11-20T08:38:09;444.60;;;293.67;;
57231;SDS011;43488;46.934;8.276;2022-11-20T08:40:36;463.02;;;207.63;;
57231;SDS011;43488;46.934;8.276;2022-11-20T08:43:04;449.02;;;307.08;;
57231;SDS011;43488;46.934;8.276;2022-11-20T08:45:31;501.48;;;243.70;;
57231;SDS011;43488;46.934;8.276;2022-11-20T08:48:02;439.35;;;290.90;;
57231;SDS011;43488;46.934;8.276;2022-11-20T08:50:30;491.45;;;224.55;;
57231;SDS011;43488;46.934;8.276;2022-11-20T08:53:05;440.30;;;288.67;;
57231;SDS011;43488;46.934;8.276;2022-11-20T08:55:33;493.08;;;226.57;;
57231;SDS011;43488;46.934;8.276;2022-11-20T08:58:04;484.83;;;214.60;;
57231;SDS011;43488;46.934;8.276;2022-11-20T09:00:33;487.58;;;217.63;;
57231;SDS011;43488;46.934;8.276;2022-11-20T09:03:01;435.52;;;283.42;;
57231;SDS011;43488;46.934;8.276;2022-11-20T09:05:29;474.85;;;214.00;;
57231;SDS011;43488;46.934;8.276;2022-11-20T09:07:57;440.65;;;288.70;;
57231;SDS011;43488;46.934;8.276;2022-11-20T09:10:26;458.73;;;302.92;;
57231;SDS011;43488;46.934;8.276;2022-11-20T09:12:54;477.00;;;209.95;;
57231;SDS011;43488;46.934;8.276;2022-11-20T09:15:24;490.92;;;221.05;;
57231;SDS011;43488;46.934;8.276;2022-11-20T09:20:28;500.80;;;222.15;;
57231;SDS011;43488;46.934;8.276;2022-11-20T09:22:57;457.65;;;297.55;;
57231;SDS011;43488;46.934;8.276;2022-11-20T09:25:24;492.35;;;213.32;;
57231;SDS011;43488;46.934;8.276;2022-11-20T09:27:55;460.10;;;308.92;;
57231;SDS011;43488;46.934;8.276;2022-11-20T09:30:25;501.02;;;222.80;;
57231;SDS011;43488;46.934;8.276;2022-11-20T09:32:53;488.30;;;222.82;;
57231;SDS011;43488;46.934;8.276;2022-11-20T09:35:23;506.20;;;239.45;;
57231;SDS011;43488;46.934;8.276;2022-11-20T09:37:51;498.92;;;222.15;;
57231;SDS011;43488;46.934;8.276;2022-11-20T09:40:20;454.52;;;300.00;;
57231;SDS011;43488;46.934;8.276;2022-11-20T09:43:12;520.72;;;242.43;;
57231;SDS011;43488;46.934;8.276;2022-11-20T09:55:13;469.58;;;308.85;;
57231;SDS011;43488;46.934;8.276;2022-11-20T09:57:42;474.42;;;295.30;;
57231;SDS011;43488;46.934;8.276;2022-11-20T10:00:14;468.15;;;288.10;;
57231;SDS011;43488;46.934;8.276;2022-11-20T10:05:54;475.65;;;314.00;;
57231;SDS011;43488;46.934;8.276;2022-11-20T10:08:31;497.73;;;224.30;;
57231;SDS011;43488;46.934;8.276;2022-11-20T10:11:33;497.58;;;222.25;;
57231;SDS011;43488;46.934;8.276;2022-11-20T10:14:30;507.65;;;229.75;;
57231;SDS011;43488;46.934;8.276;2022-11-20T10:26:22;524.63;;;223.55;;
57231;SDS011;43488;46.934;8.276;2022-11-20T10:29:11;495.50;;;312.88;;
57231;SDS011;43488;46.934;8.276;2022-11-20T10:31:43;506.30;;;321.38;;
57231;SDS011;43488;46.934;8.276;2022-11-20T10:37:19;533.70;;;235.88;;
57231;SDS011;43488;46.934;8.276;2022-11-20T10:40:00;514.35;;;232.63;;
57231;SDS011;43488;46.934;8.276;2022-11-20T10:42:41;530.75;;;233.75;;
57231;SDS011;43488;46.934;8.276;2022-11-20T10:47:52;491.45;;;307.02;;
57231;SDS011;43488;46.934;8.276;2022-11-20T10:50:27;496.63;;;311.90;;
57231;SDS011;43488;46.934;8.276;2022-11-20T10:56:17;524.80;;;237.82;;
57231;SDS011;43488;46.934;8.276;2022-11-20T11:02:40;515.83;;;232.32;;
57231;SDS011;43488;46.934;8.276;2022-11-20T11:05:14;476.70;;;298.38;;
57231;SDS011;43488;46.934;8.276;2022-11-20T11:08:02;521.38;;;240.25;;
57231;SDS011;43488;46.934;8.276;2022-11-20T11:13:18;511.73;;;236.63;;
57231;SDS011;43488;46.934;8.276;2022-11-20T11:15:54;497.50;;;311.92;;
57231;SDS011;43488;46.934;8.276;2022-11-20T11:18:26;509.05;;;221.02;;
57231;SDS011;43488;46.934;8.276;2022-11-20T11:21:00;494.48;;;310.50;;
57231;SDS011;43488;46.934;8.276;2022-11-20T11:23:34;514.63;;;320.95;;
57231;SDS011;43488;46.934;8.276;2022-11-20T11:26:23;535.40;;;236.05;;
57231;SDS011;43488;46.934;8.276;2022-11-20T11:28:56;516.78;;;332.67;;
57231;SDS011;43488;46.934;8.276;2022-11-20T11:31:26;505.55;;;315.52;;
57231;SDS011;43488;46.934;8.276;2022-11-20T11:34:07;497.00;;;311.73;;
57231;SDS011;43488;46.934;8.276;2022-11-20T11:36:42;541.20;;;236.82;;
57231;SDS011;43488;46.934;8.276;2022-11-20T11:39:25;549.85;;;250.55;;
57231;SDS011;43488;46.934;8.276;2022-11-20T11:41:54;515.95;;;325.30;;
57231;SDS011;43488;46.934;8.276;2022-11-20T11:44:33;542.25;;;242.45;;
57231;SDS011;43488;46.934;8.276;2022-11-20T11:55:45;484.77;;;301.05;;
57231;SDS011;43488;46.934;8.276;2022-11-20T12:07:55;505.00;;;322.52;;
57231;SDS011;43488;46.934;8.276;2022-11-20T12:10:33;534.97;;;236.27;;
57231;SDS011;43488;46.934;8.276;2022-11-20T12:13:26;540.30;;;227.43;;
57231;SDS011;43488;46.934;8.276;2022-11-20T12:16:17;641.17;;;254.60;;
57231;SDS011;43488;46.934;8.276;2022-11-20T12:18:48;555.15;;;336.70;;
57231;SDS011;43488;46.934;8.276;2022-11-20T12:21:19;622.65;;;303.70;;
57231;SDS011;43488;46.934;8.276;2022-11-20T12:30:00;626.63;;;373.80;;
57231;SDS011;43488;46.934;8.276;2022-11-20T12:51:07;607.65;;;346.92;;
57231;SDS011;43488;46.934;8.276;2022-11-20T12:57:16;588.75;;;245.02;;
57231;SDS011;43488;46.934;8.276;2022-11-20T13:00:21;581.23;;;346.50;;
57231;SDS011;43488;46.934;8.276;2022-11-20T13:08:38;593.75;;;344.85;;
57231;SDS011;43488;46.934;8.276;2022-11-20T13:14:35;631.13;;;295.90;;
57231;SDS011;43488;46.934;8.276;2022-11-20T13:20:13;619.22;;;277.20;;
57231;SDS011;43488;46.934;8.276;2022-11-20T13:22:48;626.40;;;290.80;;
57231;SDS011;43488;46.934;8.276;2022-11-20T13:28:27;619.33;;;279.80;;
57231;SDS011;43488;46.934;8.276;2022-11-20T13:30:49;638.58;;;381.50;;
57231;SDS011;43488;46.934;8.276;2022-11-20T13:33:35;634.45;;;372.95;;
57231;SDS011;43488;46.934;8.276;2022-11-20T13:36:20;621.65;;;356.80;;
57231;SDS011;43488;46.934;8.276;2022-11-20T13:38:51;633.20;;;368.85;;
57231;SDS011;43488;46.934;8.276;2022-11-20T13:41:29;623.55;;;368.48;;
57231;SDS011;43488;46.934;8.276;2022-11-20T13:46:51;621.60;;;308.92;;
57231;SDS011;43488;46.934;8.276;2022-11-20T13:49:22;602.88;;;272.00;;
57231;SDS011;43488;46.934;8.276;2022-11-20T14:01:09;626.33;;;400.38;;
57231;SDS011;43488;46.934;8.276;2022-11-20T14:03:42;649.03;;;352.10;;
57231;SDS011;43488;46.934;8.276;2022-11-20T14:06:16;646.03;;;414.45;;
57231;SDS011;43488;46.934;8.276;2022-11-20T14:08:58;639.38;;;397.17;;
57231;SDS011;43488;46.934;8.276;2022-11-20T14:11:26;632.63;;;403.17;;
57231;SDS011;43488;46.934;8.276;2022-11-20T14:16:27;653.40;;;387.80;;
57231;SDS011;43488;46.934;8.276;2022-11-20T14:21:45;639.78;;;349.60;;
57231;SDS011;43488;46.934;8.276;2022-11-20T14:24:19;598.35;;;369.00;;
57231;SDS011;43488;46.934;8.276;2022-11-20T14:26:49;599.85;;;373.77;;
57231;SDS011;43488;46.934;8.276;2022-11-20T14:29:18;617.33;;;306.73;;
57231;SDS011;43488;46.934;8.276;2022-11-20T14:31:51;596.60;;;370.27;;
57231;SDS011;43488;46.934;8.276;2022-11-20T14:34:27;609.78;;;286.05;;
57231;SDS011;43488;46.934;8.276;2022-11-20T14:36:58;582.60;;;354.73;;
57231;SDS011;43488;46.934;8.276;2022-11-20T14:42:15;585.85;;;302.95;;
57231;SDS011;43488;46.934;8.276;2022-11-20T14:44:51;571.20;;;234.38;;
57231;SDS011;43488;46.934;8.276;2022-11-20T14:47:26;549.65;;;316.00;;
57231;SDS011;43488;46.934;8.276;2022-11-20T14:49:57;573.90;;;235.30;;
57231;SDS011;43488;46.934;8.276;2022-11-20T14:52:26;541.75;;;309.73;;
57231;SDS011;43488;46.934;8.276;2022-11-20T14:54:54;550.05;;;341.48;;
57231;SDS011;43488;46.934;8.276;2022-11-20T14:57:31;569.25;;;241.43;;
57231;SDS011;43488;46.934;8.276;2022-11-20T15:02:44;569.95;;;259.00;;
57231;SDS011;43488;46.934;8.276;2022-11-20T15:05:15;552.63;;;242.38;;
57231;SDS011;43488;46.934;8.276;2022-11-20T15:07:46;527.25;;;327.58;;
57231;SDS011;43488;46.934;8.276;2022-11-20T15:12:53;533.47;;;338.70;;
57231;SDS011;43488;46.934;8.276;2022-11-20T15:15:31;548.97;;;245.90;;
57231;SDS011;43488;46.934;8.276;2022-11-20T15:18:21;558.90;;;253.90;;
57231;SDS011;43488;46.934;8.276;2022-11-20T15:21:03;517.65;;;324.23;;
57231;SDS011;43488;46.934;8.276;2022-11-20T15:23:45;551.42;;;244.75;;
57231;SDS011;43488;46.934;8.276;2022-11-20T15:26:15;511.88;;;318.35;;
57231;SDS011;43488;46.934;8.276;2022-11-20T15:28:54;537.55;;;243.02;;
57231;SDS011;43488;46.934;8.276;2022-11-20T15:31:22;534.92;;;236.63;;
57231;SDS011;43488;46.934;8.276;2022-11-20T15:33:52;513.83;;;324.45;;
57231;SDS011;43488;46.934;8.276;2022-11-20T15:36:20;505.77;;;315.63;;
57231;SDS011;43488;46.934;8.276;2022-11-20T15:38:48;506.52;;;316.60;;
57231;SDS011;43488;46.934;8.276;2022-11-20T15:41:17;516.30;;;226.35;;
57231;SDS011;43488;46.934;8.276;2022-11-20T15:43:45;541.88;;;252.30;;
57231;SDS011;43488;46.934;8.276;2022-11-20T15:46:14;504.60;;;335.25;;
57231;SDS011;43488;46.934;8.276;2022-11-20T15:48:51;532.03;;;250.30;;
57231;SDS011;43488;46.934;8.276;2022-11-20T15:51:29;530.33;;;238.48;;
57231;SDS011;43488;46.934;8.276;2022-11-20T15:53:59;538.30;;;251.88;;
57231;SDS011;43488;46.934;8.276;2022-11-20T15:56:28;503.45;;;332.98;;
57231;SDS011;43488;46.934;8.276;2022-11-20T15:58:56;491.77;;;310.23;;
57231;SDS011;43488;46.934;8.276;2022-11-20T16:01:23;482.02;;;297.73;;
57231;SDS011;43488;46.934;8.276;2022-11-20T16:03:50;515.63;;;228.40;;
57231;SDS011;43488;46.934;8.276;2022-11-20T16:06:20;490.42;;;320.08;;
57231;SDS011;43488;46.934;8.276;2022-11-20T16:08:47;506.20;;;226.60;;
57231;SDS011;43488;46.934;8.276;2022-11-20T16:11:15;498.20;;;318.42;;
57231;SDS011;43488;46.934;8.276;2022-11-20T16:13:44;481.20;;;314.67;;
57231;SDS011;43488;46.934;8.276;2022-11-20T16:16:36;514.38;;;226.93;;
57231;SDS011;43488;46.934;8.276;2022-11-20T16:19:10;485.35;;;320.60;;
57231;SDS011;43488;46.934;8.276;2022-11-20T16:21:39;518.65;;;238.15;;
57231;SDS011;43488;46.934;8.276;2022-11-20T16:24:09;479.98;;;307.05;;
57231;SDS011;43488;46.934;8.276;2022-11-20T16:26:39;505.30;;;228.07;;
57231;SDS011;43488;46.934;8.276;2022-11-20T16:29:07;483.27;;;318.55;;
57231;SDS011;43488;46.934;8.276;2022-11-20T16:31:36;502.95;;;227.85;;
57231;SDS011;43488;46.934;8.276;2022-11-20T16:34:05;503.05;;;221.77;;
57231;SDS011;43488;46.934;8.276;2022-11-20T16:36:34;504.73;;;222.63;;
57231;SDS011;43488;46.934;8.276;2022-11-20T16:39:02;467.10;;;305.83;;